sensor_id;sensor_type;location;lat;lon;timestamp;pressure;altitude;pressure_sealevel;temperature;humidity
80335;BME280;69653;52.674;13.574;2023-05-23T00:01:32;100399.13;;;16.15;47.42
80335;BME280;69653;52.674;13.574;2023-05-23T00:04:02;100389.94;;;16.11;47.47
80335;BME280;69653;52.674;13.574;2023-05-23T00:06:27;100385.56;;;16.10;47.63
80335;BME280;69653;52.674;13.574;2023-05-23T00:08:52;100383.94;;;16.09;47.42
80335;BME280;69653;52.674;13.574;2023-05-23T00:11:18;100383.94;;;16.09;47.37
80335;BME280;69653;52.674;13.574;2023-05-23T00:13:44;100380.72;;;16.07;47.71
80335;BME280;69653;52.674;13.574;2023-05-23T00:16:10;100381.97;;;16.10;47.51
80335;BME280;69653;52.674;13.574;2023-05-23T00:18:36;100380.72;;;16.07;47.57
80335;BME280;69653;52.674;13.574;2023-05-23T00:21:02;100371.03;;;16.01;47.75
80335;BME280;69653;52.674;13.574;2023-05-23T00:23:28;100373.34;;;15.99;47.72
80335;BME280;69653;52.674;13.574;2023-05-23T00:25:54;100368.03;;;15.94;47.75
80335;BME280;69653;52.674;13.574;2023-05-23T00:28:20;100374.03;;;15.96;48.10
80335;BME280;69653;52.674;13.574;2023-05-23T00:30:46;100369.88;;;15.90;48.26
80335;BME280;69653;52.674;13.574;2023-05-23T00:33:14;100364.09;;;15.83;48.44
80335;BME280;69653;52.674;13.574;2023-05-23T00:35:40;100382.06;;;15.89;48.50
80335;BME280;69653;52.674;13.574;2023-05-23T00:38:06;100371.13;;;15.80;48.52
80335;BME280;69653;52.674;13.574;2023-05-23T00:40:32;100373.06;;;15.80;48.42
80335;BME280;69653;52.674;13.574;2023-05-23T00:42:58;100373.38;;;15.78;48.47
80335;BME280;69653;52.674;13.574;2023-05-23T00:45:24;100368.91;;;15.74;48.46
80335;BME280;69653;52.674;13.574;2023-05-23T00:47:50;100366.81;;;15.71;48.82
80335;BME280;69653;52.674;13.574;2023-05-23T00:50:16;100376.38;;;15.73;49.41
80335;BME280;69653;52.674;13.574;2023-05-23T00:52:43;100375.31;;;15.66;48.79
80335;BME280;69653;52.674;13.574;2023-05-23T00:55:09;100367.25;;;15.61;48.98
80335;BME280;69653;52.674;13.574;2023-05-23T00:57:35;100369.06;;;15.57;49.32
80335;BME280;69653;52.674;13.574;2023-05-23T01:00:06;100362.63;;;15.52;49.50
80335;BME280;69653;52.674;13.574;2023-05-23T01:02:33;100366.19;;;15.53;49.48
80335;BME280;69653;52.674;13.574;2023-05-23T01:05:02;100354.75;;;15.42;49.60
80335;BME280;69653;52.674;13.574;2023-05-23T01:07:27;100361.50;;;15.45;49.67
80335;BME280;69653;52.674;13.574;2023-05-23T01:09:53;100355.28;;;15.36;50.23
80335;BME280;69653;52.674;13.574;2023-05-23T01:12:30;100353.47;;;15.40;50.28
80335;BME280;69653;52.674;13.574;2023-05-23T01:15:04;100347.09;;;15.27;50.70
80335;BME280;69653;52.674;13.574;2023-05-23T01:20:52;100349.38;;;15.25;50.94
80335;BME280;69653;52.674;13.574;2023-05-23T01:23:30;100343.63;;;15.18;51.06
80335;BME280;69653;52.674;13.574;2023-05-23T01:26:44;100340.63;;;15.23;51.13
80335;BME280;69653;52.674;13.574;2023-05-23T01:29:10;100339.03;;;15.22;51.06
80335;BME280;69653;52.674;13.574;2023-05-23T01:31:42;100333.31;;;15.27;50.96
80335;BME280;69653;52.674;13.574;2023-05-23T01:34:09;100328.88;;;15.35;50.47
80335;BME280;69653;52.674;13.574;2023-05-23T01:36:40;100327.59;;;15.32;50.68
80335;BME280;69653;52.674;13.574;2023-05-23T01:39:06;100327.38;;;15.37;50.76
80335;BME280;69653;52.674;13.574;2023-05-23T01:41:32;100327.25;;;15.34;50.78
80335;BME280;69653;52.674;13.574;2023-05-23T01:43:57;100311.09;;;15.32;50.77
80335;BME280;69653;52.674;13.574;2023-05-23T01:46:23;100316.09;;;15.30;50.58
80335;BME280;69653;52.674;13.574;2023-05-23T01:48:49;100319.94;;;15.38;50.66
80335;BME280;69653;52.674;13.574;2023-05-23T01:51:15;100320.47;;;15.31;50.79
80335;BME280;69653;52.674;13.574;2023-05-23T01:53:40;100317.84;;;15.35;50.65
80335;BME280;69653;52.674;13.574;2023-05-23T01:56:07;100320.16;;;15.33;50.55
80335;BME280;69653;52.674;13.574;2023-05-23T01:58:32;100324.84;;;15.32;51.11
80335;BME280;69653;52.674;13.574;2023-05-23T02:00:58;100327.25;;;15.34;51.01
80335;BME280;69653;52.674;13.574;2023-05-23T02:03:23;100316.09;;;15.30;51.05
80335;BME280;69653;52.674;13.574;2023-05-23T02:05:48;100313.28;;;15.39;50.73
80335;BME280;69653;52.674;13.574;2023-05-23T02:08:14;100320.53;;;15.43;50.83
80335;BME280;69653;52.674;13.574;2023-05-23T02:10:39;100318.25;;;15.45;51.02
80335;BME280;69653;52.674;13.574;2023-05-23T02:13:05;100314.66;;;15.45;50.82
80335;BME280;69653;52.674;13.574;2023-05-23T02:15:30;100317.91;;;15.47;50.92
80335;BME280;69653;52.674;13.574;2023-05-23T02:17:55;100317.25;;;15.50;50.86
80335;BME280;69653;52.674;13.574;2023-05-23T02:20:21;100305.44;;;15.49;50.48
80335;BME280;69653;52.674;13.574;2023-05-23T02:22:46;100305.91;;;15.51;50.94
80335;BME280;69653;52.674;13.574;2023-05-23T02:25:11;100303.59;;;15.53;50.90
80335;BME280;69653;52.674;13.574;2023-05-23T02:27:37;100312.00;;;15.57;51.33
80335;BME280;69653;52.674;13.574;2023-05-23T02:30:03;100311.31;;;15.60;51.29
80335;BME280;69653;52.674;13.574;2023-05-23T02:32:29;100308.91;;;15.59;51.52
80335;BME280;69653;52.674;13.574;2023-05-23T02:34:54;100300.16;;;15.57;51.57
80335;BME280;69653;52.674;13.574;2023-05-23T02:37:19;100305.34;;;15.58;51.57
80335;BME280;69653;52.674;13.574;2023-05-23T02:39:45;100319.59;;;15.60;51.80
80335;BME280;69653;52.674;13.574;2023-05-23T02:42:10;100307.16;;;15.54;51.74
80335;BME280;69653;52.674;13.574;2023-05-23T02:44:35;100315.22;;;15.59;52.12
80335;BME280;69653;52.674;13.574;2023-05-23T02:47:00;100302.47;;;15.55;51.83
80335;BME280;69653;52.674;13.574;2023-05-23T02:49:26;100300.97;;;15.57;52.09
80335;BME280;69653;52.674;13.574;2023-05-23T02:51:51;100310.97;;;15.62;52.20
80335;BME280;69653;52.674;13.574;2023-05-23T02:54:17;100294.06;;;15.51;52.55
80335;BME280;69653;52.674;13.574;2023-05-23T02:56:44;100309.59;;;15.56;52.88
80335;BME280;69653;52.674;13.574;2023-05-23T02:59:10;100311.06;;;15.53;53.01
80335;BME280;69653;52.674;13.574;2023-05-23T03:01:36;100307.50;;;15.52;53.35
80335;BME280;69653;52.674;13.574;2023-05-23T03:04:01;100301.53;;;15.50;53.71
80335;BME280;69653;52.674;13.574;2023-05-23T03:06:27;100299.44;;;15.47;53.67
80335;BME280;69653;52.674;13.574;2023-05-23T03:08:52;100300.56;;;15.46;53.57
80335;BME280;69653;52.674;13.574;2023-05-23T03:11:18;100298.94;;;15.45;53.63
80335;BME280;69653;52.674;13.574;2023-05-23T03:13:43;100286.88;;;15.38;53.86
80335;BME280;69653;52.674;13.574;2023-05-23T03:16:08;100293.44;;;15.45;53.94
80335;BME280;69653;52.674;13.574;2023-05-23T03:18:34;100299.44;;;15.47;54.33
80335;BME280;69653;52.674;13.574;2023-05-23T03:20:59;100301.25;;;15.43;54.17
80335;BME280;69653;52.674;13.574;2023-05-23T03:23:24;100305.63;;;15.44;54.12
80335;BME280;69653;52.674;13.574;2023-05-23T03:25:50;100300.25;;;15.48;53.82
80335;BME280;69653;52.674;13.574;2023-05-23T03:28:16;100297.34;;;15.44;53.80
80335;BME280;69653;52.674;13.574;2023-05-23T03:34:30;100290.22;;;15.43;54.10
80335;BME280;69653;52.674;13.574;2023-05-23T03:37:31;100291.69;;;15.41;53.96
80335;BME280;69653;52.674;13.574;2023-05-23T03:39:57;100288.47;;;15.39;53.86
80335;BME280;69653;52.674;13.574;2023-05-23T03:42:22;100275.97;;;15.41;53.79
80335;BME280;69653;52.674;13.574;2023-05-23T03:44:47;100281.84;;;15.40;54.45
80335;BME280;69653;52.674;13.574;2023-05-23T03:47:13;100291.38;;;15.42;54.19
80335;BME280;69653;52.674;13.574;2023-05-23T03:49:38;100287.81;;;15.42;54.12
80335;BME280;69653;52.674;13.574;2023-05-23T03:52:03;100292.50;;;15.41;54.04
80335;BME280;69653;52.674;13.574;2023-05-23T03:54:28;100294.59;;;15.44;53.83
80335;BME280;69653;52.674;13.574;2023-05-23T03:56:54;100283.59;;;15.44;53.94
80335;BME280;69653;52.674;13.574;2023-05-23T03:59:19;100291.03;;;15.44;54.25
80335;BME280;69653;52.674;13.574;2023-05-23T04:01:44;100291.31;;;15.51;54.12
80335;BME280;69653;52.674;13.574;2023-05-23T04:04:10;100299.91;;;15.49;53.69
80335;BME280;69653;52.674;13.574;2023-05-23T04:06:35;100290.34;;;15.47;53.72
80335;BME280;69653;52.674;13.574;2023-05-23T04:09:01;100284.19;;;15.50;53.44
80335;BME280;69653;52.674;13.574;2023-05-23T04:11:27;100276.56;;;15.47;53.95
80335;BME280;69653;52.674;13.574;2023-05-23T04:13:52;100283.38;;;15.49;54.32
80335;BME280;69653;52.674;13.574;2023-05-23T04:16:18;100288.72;;;15.46;54.22
80335;BME280;69653;52.674;13.574;2023-05-23T04:18:43;100273.69;;;15.43;54.20
80335;BME280;69653;52.674;13.574;2023-05-23T04:21:11;100287.25;;;15.48;54.19
80335;BME280;69653;52.674;13.574;2023-05-23T04:23:36;100275.78;;;15.46;54.23
80335;BME280;69653;52.674;13.574;2023-05-23T04:26:02;100274.31;;;15.49;54.37
80335;BME280;69653;52.674;13.574;2023-05-23T04:28:29;100286.75;;;15.55;54.18
80335;BME280;69653;52.674;13.574;2023-05-23T04:30:55;100288.44;;;15.60;54.07
80335;BME280;69653;52.674;13.574;2023-05-23T04:33:21;100288.94;;;15.62;53.82
80335;BME280;69653;52.674;13.574;2023-05-23T04:35:46;100276.16;;;15.57;54.13
80335;BME280;69653;52.674;13.574;2023-05-23T04:38:11;100256.75;;;15.53;54.50
80335;BME280;69653;52.674;13.574;2023-05-23T04:40:37;100274.34;;;15.61;54.37
80335;BME280;69653;52.674;13.574;2023-05-23T04:43:02;100273.22;;;15.62;54.61
80335;BME280;69653;52.674;13.574;2023-05-23T04:45:28;100267.56;;;15.59;54.67
80335;BME280;69653;52.674;13.574;2023-05-23T04:47:53;100276.28;;;15.61;54.45
80335;BME280;69653;52.674;13.574;2023-05-23T04:50:19;100280.91;;;15.69;54.39
80335;BME280;69653;52.674;13.574;2023-05-23T04:52:47;100271.72;;;15.65;54.11
80335;BME280;69653;52.674;13.574;2023-05-23T04:55:12;100263.81;;;15.63;54.41
80335;BME280;69653;52.674;13.574;2023-05-23T04:57:38;100268.16;;;15.64;54.86
80335;BME280;69653;52.674;13.574;2023-05-23T05:00:04;100266.00;;;15.70;54.70
80335;BME280;69653;52.674;13.574;2023-05-23T05:02:36;100263.69;;;15.72;54.93
80335;BME280;69653;52.674;13.574;2023-05-23T05:05:02;100265.31;;;15.73;55.29
80335;BME280;69653;52.674;13.574;2023-05-23T05:07:29;100270.13;;;15.76;55.37
80335;BME280;69653;52.674;13.574;2023-05-23T05:09:54;100266.31;;;15.68;56.24
80335;BME280;69653;52.674;13.574;2023-05-23T05:12:19;100260.22;;;15.63;56.52
80335;BME280;69653;52.674;13.574;2023-05-23T05:14:45;100253.34;;;15.69;56.39
80335;BME280;69653;52.674;13.574;2023-05-23T05:17:10;100262.22;;;15.74;56.06
80335;BME280;69653;52.674;13.574;2023-05-23T05:19:35;100245.41;;;15.67;56.14
80335;BME280;69653;52.674;13.574;2023-05-23T05:22:01;100260.22;;;15.75;56.05
80335;BME280;69653;52.674;13.574;2023-05-23T05:24:26;100263.09;;;15.78;56.05
80335;BME280;69653;52.674;13.574;2023-05-23T05:26:52;100269.09;;;15.80;55.75
80335;BME280;69653;52.674;13.574;2023-05-23T05:29:18;100271.16;;;15.83;55.41
80335;BME280;69653;52.674;13.574;2023-05-23T05:31:43;100285.56;;;15.89;55.16
80335;BME280;69653;52.674;13.574;2023-05-23T05:34:09;100277.81;;;15.82;55.26
80335;BME280;69653;52.674;13.574;2023-05-23T05:36:35;100271.06;;;15.80;55.79
80335;BME280;69653;52.674;13.574;2023-05-23T05:39:00;100273.59;;;15.85;56.30
80335;BME280;69653;52.674;13.574;2023-05-23T05:41:26;100275.63;;;15.76;56.77
80335;BME280;69653;52.674;13.574;2023-05-23T05:43:51;100277.59;;;15.75;56.92
80335;BME280;69653;52.674;13.574;2023-05-23T05:46:16;100273.09;;;15.71;56.73
80335;BME280;69653;52.674;13.574;2023-05-23T05:48:42;100295.41;;;15.78;57.13
80335;BME280;69653;52.674;13.574;2023-05-23T05:51:07;100290.56;;;15.75;56.86
80335;BME280;69653;52.674;13.574;2023-05-23T05:53:32;100289.78;;;15.74;56.78
80335;BME280;69653;52.674;13.574;2023-05-23T05:55:58;100261.38;;;15.62;56.37
80335;BME280;69653;52.674;13.574;2023-05-23T05:58:23;100277.69;;;15.79;56.41
80335;BME280;69653;52.674;13.574;2023-05-23T06:00:49;100280.34;;;15.75;56.72
80335;BME280;69653;52.674;13.574;2023-05-23T06:03:14;100277.59;;;15.75;56.09
80335;BME280;69653;52.674;13.574;2023-05-23T06:05:40;100277.59;;;15.75;56.49
80335;BME280;69653;52.674;13.574;2023-05-23T06:08:06;100273.34;;;15.78;56.34
80335;BME280;69653;52.674;13.574;2023-05-23T06:10:31;100272.31;;;15.82;56.33
80335;BME280;69653;52.674;13.574;2023-05-23T06:12:57;100288.06;;;15.94;56.21
80335;BME280;69653;52.674;13.574;2023-05-23T06:15:23;100276.34;;;15.97;56.33
80335;BME280;69653;52.674;13.574;2023-05-23T06:17:48;100268.56;;;15.99;55.96
80335;BME280;69653;52.674;13.574;2023-05-23T06:20:13;100263.25;;;16.06;55.47
80335;BME280;69653;52.674;13.574;2023-05-23T06:22:39;100270.63;;;16.14;55.52
80335;BME280;69653;52.674;13.574;2023-05-23T06:25:05;100270.84;;;16.21;55.74
80335;BME280;69653;52.674;13.574;2023-05-23T06:27:30;100274.53;;;16.37;55.59
80335;BME280;69653;52.674;13.574;2023-05-23T06:29:56;100268.06;;;16.45;55.77
80335;BME280;69653;52.674;13.574;2023-05-23T06:32:21;100275.91;;;16.56;55.18
80335;BME280;69653;52.674;13.574;2023-05-23T06:34:46;100262.22;;;16.59;54.81
80335;BME280;69653;52.674;13.574;2023-05-23T06:37:12;100259.47;;;16.59;54.47
80335;BME280;69653;52.674;13.574;2023-05-23T06:39:37;100263.69;;;16.69;54.52
80335;BME280;69653;52.674;13.574;2023-05-23T06:42:02;100261.25;;;16.79;54.06
80335;BME280;69653;52.674;13.574;2023-05-23T06:44:28;100262.03;;;16.92;54.00
80335;BME280;69653;52.674;13.574;2023-05-23T06:46:53;100266.81;;;17.07;53.67
80335;BME280;69653;52.674;13.574;2023-05-23T06:49:22;100266.06;;;17.22;53.50
80335;BME280;69653;52.674;13.574;2023-05-23T06:51:47;100271.97;;;17.36;53.62
80335;BME280;69653;52.674;13.574;2023-05-23T06:54:13;100263.44;;;17.41;52.79
80335;BME280;69653;52.674;13.574;2023-05-23T06:56:38;100263.63;;;17.49;52.52
80335;BME280;69653;52.674;13.574;2023-05-23T06:59:03;100259.94;;;17.57;52.76
80335;BME280;69653;52.674;13.574;2023-05-23T07:01:29;100262.19;;;17.67;52.57
80335;BME280;69653;52.674;13.574;2023-05-23T07:03:54;100244.31;;;17.64;51.75
80335;BME280;69653;52.674;13.574;2023-05-23T07:06:20;100265.13;;;17.74;50.67
80335;BME280;69653;52.674;13.574;2023-05-23T07:08:45;100263.25;;;17.78;49.67
80335;BME280;69653;52.674;13.574;2023-05-23T07:11:10;100269.22;;;17.80;48.74
80335;BME280;69653;52.674;13.574;2023-05-23T07:13:36;100265.31;;;17.81;49.56
80335;BME280;69653;52.674;13.574;2023-05-23T07:16:01;100277.25;;;17.85;49.23
80335;BME280;69653;52.674;13.574;2023-05-23T07:18:26;100274.66;;;17.76;48.92
80335;BME280;69653;52.674;13.574;2023-05-23T07:20:52;100267.97;;;17.62;49.25
80335;BME280;69653;52.674;13.574;2023-05-23T07:23:17;100277.50;;;17.64;49.61
80335;BME280;69653;52.674;13.574;2023-05-23T07:25:43;100263.50;;;17.73;49.45
80335;BME280;69653;52.674;13.574;2023-05-23T07:28:08;100275.66;;;17.84;49.31
80335;BME280;69653;52.674;13.574;2023-05-23T07:30:34;100233.19;;;17.76;48.82
80335;BME280;69653;52.674;13.574;2023-05-23T07:32:59;100251.28;;;18.05;48.17
80335;BME280;69653;52.674;13.574;2023-05-23T07:35:25;100261.91;;;18.34;47.70
80335;BME280;69653;52.674;13.574;2023-05-23T07:37:54;100280.16;;;18.70;47.96
80335;BME280;69653;52.674;13.574;2023-05-23T07:40:20;100254.13;;;18.75;47.86
80335;BME280;69653;52.674;13.574;2023-05-23T07:42:46;100269.81;;;19.25;46.81
80335;BME280;69653;52.674;13.574;2023-05-23T07:45:12;100249.25;;;19.45;46.08
80335;BME280;69653;52.674;13.574;2023-05-23T07:47:37;100257.75;;;19.75;45.33
80335;BME280;69653;52.674;13.574;2023-05-23T07:50:03;100263.94;;;20.37;44.75
80335;BME280;69653;52.674;13.574;2023-05-23T07:52:29;100256.44;;;20.67;42.79
80335;BME280;69653;52.674;13.574;2023-05-23T07:54:56;100255.66;;;20.66;42.21
80335;BME280;69653;52.674;13.574;2023-05-23T07:57:21;100267.59;;;20.70;42.02
80335;BME280;69653;52.674;13.574;2023-05-23T07:59:48;100270.25;;;20.60;42.25
80335;BME280;69653;52.674;13.574;2023-05-23T08:02:14;100268.59;;;20.55;41.88
80335;BME280;69653;52.674;13.574;2023-05-23T08:04:39;100272.25;;;20.63;43.20
80335;BME280;69653;52.674;13.574;2023-05-23T08:07:05;100268.41;;;20.71;42.65
80335;BME280;69653;52.674;13.574;2023-05-23T08:09:32;100269.22;;;20.71;41.80
80335;BME280;69653;52.674;13.574;2023-05-23T08:11:57;100279.09;;;20.95;42.07
80335;BME280;69653;52.674;13.574;2023-05-23T08:14:23;100279.78;;;21.18;41.73
80335;BME280;69653;52.674;13.574;2023-05-23T08:16:48;100277.91;;;21.26;41.35
80335;BME280;69653;52.674;13.574;2023-05-23T08:19:13;100280.03;;;21.36;41.11
80335;BME280;69653;52.674;13.574;2023-05-23T08:21:39;100265.38;;;21.43;41.01
80335;BME280;69653;52.674;13.574;2023-05-23T08:24:05;100282.41;;;21.74;40.61
80335;BME280;69653;52.674;13.574;2023-05-23T08:26:30;100275.00;;;21.89;39.79
80335;BME280;69653;52.674;13.574;2023-05-23T08:29:00;100274.84;;;21.75;39.94
80335;BME280;69653;52.674;13.574;2023-05-23T08:31:30;100265.84;;;21.89;40.54
80335;BME280;69653;52.674;13.574;2023-05-23T08:33:56;100268.78;;;21.99;39.63
80335;BME280;69653;52.674;13.574;2023-05-23T08:36:21;100273.16;;;22.51;40.16
80335;BME280;69653;52.674;13.574;2023-05-23T08:38:48;100270.94;;;22.78;38.33
80335;BME280;69653;52.674;13.574;2023-05-23T08:41:19;100288.59;;;22.96;37.90
80335;BME280;69653;52.674;13.574;2023-05-23T08:43:45;100279.63;;;23.49;36.53
80335;BME280;69653;52.674;13.574;2023-05-23T08:46:11;100296.13;;;24.42;34.66
80335;BME280;69653;52.674;13.574;2023-05-23T08:48:38;100286.09;;;24.73;34.39
80335;BME280;69653;52.674;13.574;2023-05-23T08:51:03;100294.09;;;24.78;33.34
80335;BME280;69653;52.674;13.574;2023-05-23T08:53:30;100298.50;;;24.65;33.33
80335;BME280;69653;52.674;13.574;2023-05-23T08:55:57;100302.41;;;25.10;32.53
80335;BME280;69653;52.674;13.574;2023-05-23T08:58:28;100301.94;;;25.33;31.69
80335;BME280;69653;52.674;13.574;2023-05-23T09:00:54;100301.94;;;25.29;32.29
80335;BME280;69653;52.674;13.574;2023-05-23T09:03:21;100308.41;;;25.16;32.50
80335;BME280;69653;52.674;13.574;2023-05-23T09:05:48;100311.19;;;25.16;32.16
80335;BME280;69653;52.674;13.574;2023-05-23T09:08:14;100303.63;;;25.02;33.36
80335;BME280;69653;52.674;13.574;2023-05-23T09:10:41;100306.50;;;24.70;34.03
80335;BME280;69653;52.674;13.574;2023-05-23T09:13:06;100310.47;;;24.73;34.57
80335;BME280;69653;52.674;13.574;2023-05-23T09:15:31;100304.09;;;24.90;33.72
80335;BME280;69653;52.674;13.574;2023-05-23T09:18:00;100313.22;;;25.08;33.47
80335;BME280;69653;52.674;13.574;2023-05-23T09:20:26;100315.09;;;25.36;33.63
80335;BME280;69653;52.674;13.574;2023-05-23T09:22:53;100315.09;;;25.39;34.14
80335;BME280;69653;52.674;13.574;2023-05-23T09:25:19;100314.75;;;25.27;33.94
80335;BME280;69653;52.674;13.574;2023-05-23T09:27:44;100311.94;;;25.34;33.72
80335;BME280;69653;52.674;13.574;2023-05-23T09:30:11;100307.47;;;25.43;33.46
80335;BME280;69653;52.674;13.574;2023-05-23T09:32:36;100322.19;;;25.62;33.18
80335;BME280;69653;52.674;13.574;2023-05-23T09:35:03;100322.53;;;25.74;33.71
80335;BME280;69653;52.674;13.574;2023-05-23T09:40:10;100308.66;;;25.49;34.26
80335;BME280;69653;52.674;13.574;2023-05-23T09:42:43;100311.97;;;25.27;35.15
80335;BME280;69653;52.674;13.574;2023-05-23T09:45:10;100308.44;;;25.08;35.13
80335;BME280;69653;52.674;13.574;2023-05-23T09:47:35;100307.22;;;25.02;35.55
80335;BME280;69653;52.674;13.574;2023-05-23T09:50:01;100321.06;;;25.52;35.40
80335;BME280;69653;52.674;13.574;2023-05-23T09:52:26;100315.53;;;26.07;34.25
80335;BME280;69653;52.674;13.574;2023-05-23T09:54:53;100308.31;;;26.58;32.80
80335;BME280;69653;52.674;13.574;2023-05-23T09:57:20;100300.84;;;26.85;32.08
80335;BME280;69653;52.674;13.574;2023-05-23T09:59:53;100312.84;;;27.23;31.17
80335;BME280;69653;52.674;13.574;2023-05-23T10:05:02;100307.28;;;28.33;30.44
80335;BME280;69653;52.674;13.574;2023-05-23T10:07:29;100313.88;;;28.73;29.86
80335;BME280;69653;52.674;13.574;2023-05-23T10:09:55;100299.41;;;28.71;30.08
80335;BME280;69653;52.674;13.574;2023-05-23T10:15:00;100307.63;;;29.45;28.27
80335;BME280;69653;52.674;13.574;2023-05-23T10:17:28;100300.81;;;29.62;28.43
80335;BME280;69653;52.674;13.574;2023-05-23T10:20:15;100315.16;;;29.31;27.88
80335;BME280;69653;52.674;13.574;2023-05-23T10:22:41;100302.53;;;29.40;27.90
80335;BME280;69653;52.674;13.574;2023-05-23T10:25:07;100312.50;;;29.44;27.93
80335;BME280;69653;52.674;13.574;2023-05-23T10:27:36;100307.84;;;29.54;28.64
80335;BME280;69653;52.674;13.574;2023-05-23T10:30:02;100306.94;;;29.76;28.49
80335;BME280;69653;52.674;13.574;2023-05-23T10:32:28;100300.75;;;29.65;27.68
80335;BME280;69653;52.674;13.574;2023-05-23T10:34:59;100292.78;;;29.44;27.96
80335;BME280;69653;52.674;13.574;2023-05-23T10:37:28;100295.91;;;28.87;29.17
80335;BME280;69653;52.674;13.574;2023-05-23T10:40:04;100296.59;;;28.48;29.93
80335;BME280;69653;52.674;13.574;2023-05-23T10:47:40;100292.03;;;27.81;31.43
80335;BME280;69653;52.674;13.574;2023-05-23T10:50:06;100291.75;;;27.41;31.80
80335;BME280;69653;52.674;13.574;2023-05-23T10:52:38;100288.94;;;27.11;32.44
80335;BME280;69653;52.674;13.574;2023-05-23T10:55:12;100296.31;;;26.57;32.93
80335;BME280;69653;52.674;13.574;2023-05-23T10:57:38;100295.41;;;26.23;33.76
80335;BME280;69653;52.674;13.574;2023-05-23T11:00:11;100291.59;;;25.95;34.68
80335;BME280;69653;52.674;13.574;2023-05-23T11:02:37;100308.06;;;25.90;34.95
80335;BME280;69653;52.674;13.574;2023-05-23T11:05:22;100304.22;;;25.59;35.88
80335;BME280;69653;52.674;13.574;2023-05-23T11:08:09;100303.13;;;25.32;36.55
80335;BME280;69653;52.674;13.574;2023-05-23T11:10:51;100300.44;;;25.03;36.94
80335;BME280;69653;52.674;13.574;2023-05-23T11:13:18;100297.28;;;24.77;37.87
80335;BME280;69653;52.674;13.574;2023-05-23T11:15:44;100308.53;;;24.45;38.81
80335;BME280;69653;52.674;13.574;2023-05-23T11:18:22;100306.13;;;24.29;39.32
80335;BME280;69653;52.674;13.574;2023-05-23T11:20:50;100313.25;;;24.02;41.49
80335;BME280;69653;52.674;13.574;2023-05-23T11:23:16;100303.19;;;23.51;46.84
80335;BME280;69653;52.674;13.574;2023-05-23T11:25:50;100317.34;;;23.11;48.87
80335;BME280;69653;52.674;13.574;2023-05-23T11:28:16;100306.81;;;22.80;49.95
80335;BME280;69653;52.674;13.574;2023-05-23T11:30:42;100315.34;;;22.53;50.67
80335;BME280;69653;52.674;13.574;2023-05-23T11:33:12;100312.88;;;22.45;50.88
80335;BME280;69653;52.674;13.574;2023-05-23T11:35:45;100311.19;;;22.30;50.64
80335;BME280;69653;52.674;13.574;2023-05-23T11:38:13;100307.19;;;22.27;50.88
80335;BME280;69653;52.674;13.574;2023-05-23T11:40:40;100307.94;;;22.20;50.95
80335;BME280;69653;52.674;13.574;2023-05-23T11:43:07;100302.94;;;22.00;49.43
80335;BME280;69653;52.674;13.574;2023-05-23T11:45:34;100305.41;;;21.68;50.04
80335;BME280;69653;52.674;13.574;2023-05-23T11:48:06;100327.06;;;21.52;50.19
80335;BME280;69653;52.674;13.574;2023-05-23T11:50:32;100325.69;;;21.35;50.49
80335;BME280;69653;52.674;13.574;2023-05-23T11:52:59;100324.88;;;21.05;51.59
80335;BME280;69653;52.674;13.574;2023-05-23T11:55:24;100324.94;;;20.82;52.93
80335;BME280;69653;52.674;13.574;2023-05-23T11:57:49;100323.22;;;20.74;53.91
80335;BME280;69653;52.674;13.574;2023-05-23T12:00:16;100339.53;;;20.75;53.95
80335;BME280;69653;52.674;13.574;2023-05-23T12:02:43;100340.81;;;20.81;53.34
80335;BME280;69653;52.674;13.574;2023-05-23T12:05:10;100332.56;;;20.89;52.11
80335;BME280;69653;52.674;13.574;2023-05-23T12:07:41;100339.09;;;21.00;51.76
80335;BME280;69653;52.674;13.574;2023-05-23T12:10:09;100330.03;;;21.03;51.45
80335;BME280;69653;52.674;13.574;2023-05-23T12:12:34;100343.00;;;21.21;51.81
80335;BME280;69653;52.674;13.574;2023-05-23T12:15:00;100340.63;;;21.23;51.93
80335;BME280;69653;52.674;13.574;2023-05-23T12:17:25;100345.56;;;21.37;51.16
80335;BME280;69653;52.674;13.574;2023-05-23T12:19:51;100346.63;;;21.59;50.47
80335;BME280;69653;52.674;13.574;2023-05-23T12:22:22;100349.16;;;21.71;49.76
80335;BME280;69653;52.674;13.574;2023-05-23T12:24:48;100334.59;;;21.81;49.08
80335;BME280;69653;52.674;13.574;2023-05-23T12:27:15;100344.91;;;22.17;48.71
80335;BME280;69653;52.674;13.574;2023-05-23T12:29:41;100340.06;;;22.55;48.59
80335;BME280;69653;52.674;13.574;2023-05-23T12:32:07;100338.66;;;22.79;48.84
80335;BME280;69653;52.674;13.574;2023-05-23T12:34:32;100352.28;;;22.91;47.88
80335;BME280;69653;52.674;13.574;2023-05-23T12:36:59;100351.13;;;22.95;47.61
80335;BME280;69653;52.674;13.574;2023-05-23T12:39:28;100345.94;;;22.97;47.88
80335;BME280;69653;52.674;13.574;2023-05-23T12:41:54;100344.00;;;23.05;47.85
80335;BME280;69653;52.674;13.574;2023-05-23T12:44:23;100359.63;;;23.24;48.69
80335;BME280;69653;52.674;13.574;2023-05-23T12:46:48;100362.00;;;23.14;49.70
80335;BME280;69653;52.674;13.574;2023-05-23T12:49:14;100345.84;;;22.83;50.43
80335;BME280;69653;52.674;13.574;2023-05-23T12:51:39;100354.72;;;22.96;51.27
80335;BME280;69653;52.674;13.574;2023-05-23T12:54:05;100358.69;;;22.98;51.00
80335;BME280;69653;52.674;13.574;2023-05-23T12:56:32;100358.69;;;22.98;51.16
80335;BME280;69653;52.674;13.574;2023-05-23T12:58:57;100350.34;;;23.02;50.66